sensor_id;sensor_type;location;lat;lon;timestamp;pressure;altitude;pressure_sealevel;temperature;humidity
51439;BME280;38816;51.142;-0.974;2022-11-20T00:01:45;99735.66;;;3.03;100.00
51439;BME280;38816;51.142;-0.974;2022-11-20T00:04:10;99732.25;;;3.02;100.00
51439;BME280;38816;51.142;-0.974;2022-11-20T00:06:37;99722.13;;;3.04;100.00
51439;BME280;38816;51.142;-0.974;2022-11-20T00:09:03;99724.97;;;3.12;100.00
51439;BME280;38816;51.142;-0.974;2022-11-20T00:11:30;99722.31;;;3.09;100.00
51439;BME280;38816;51.142;-0.974;2022-11-20T00:13:58;99708.63;;;3.05;100.00
51439;BME280;38816;51.142;-0.974;2022-11-20T00:16:26;99720.97;;;3.18;100.00
51439;BME280;38816;51.142;-0.974;2022-11-20T00:18:52;99714.22;;;3.19;100.00
51439;BME280;38816;51.142;-0.974;2022-11-20T00:21:23;99695.06;;;3.04;100.00
51439;BME280;38816;51.142;-0.974;2022-11-20T00:23:50;99708.97;;;3.14;100.00
51439;BME280;38816;51.142;-0.974;2022-11-20T00:26:17;99699.59;;;3.12;100.00
51439;BME280;38816;51.142;-0.974;2022-11-20T00:28:44;99698.72;;;3.11;100.00
51439;BME280;38816;51.142;-0.974;2022-11-20T00:31:12;99682.22;;;3.00;100.00
51439;BME280;38816;51.142;-0.974;2022-11-20T00:33:38;99682.41;;;3.06;100.00
51439;BME280;38816;51.142;-0.974;2022-11-20T00:36:09;99690.41;;;3.15;100.00
51439;BME280;38816;51.142;-0.974;2022-11-20T00:38:34;99688.91;;;3.20;100.00
51439;BME280;38816;51.142;-0.974;2022-11-20T00:41:02;99663.22;;;3.13;100.00
51439;BME280;38816;51.142;-0.974;2022-11-20T00:43:27;99689.13;;;3.26;100.00
51439;BME280;38816;51.142;-0.974;2022-11-20T00:45:57;99685.19;;;3.35;100.00
51439;BME280;38816;51.142;-0.974;2022-11-20T00:48:22;99691.25;;;3.38;100.00
51439;BME280;38816;51.142;-0.974;2022-11-20T00:50:48;99669.94;;;3.35;100.00
51439;BME280;38816;51.142;-0.974;2022-11-20T00:53:13;99667.41;;;3.35;100.00
51439;BME280;38816;51.142;-0.974;2022-11-20T00:55:39;99659.88;;;3.38;100.00
51439;BME280;38816;51.142;-0.974;2022-11-20T00:58:04;99670.38;;;3.47;100.00
51439;BME280;38816;51.142;-0.974;2022-11-20T01:00:30;99649.94;;;3.44;100.00
51439;BME280;38816;51.142;-0.974;2022-11-20T01:02:55;99653.47;;;3.47;100.00
51439;BME280;38816;51.142;-0.974;2022-11-20T01:05:21;99661.44;;;3.58;100.00
51439;BME280;38816;51.142;-0.974;2022-11-20T01:07:46;99656.50;;;3.61;100.00
51439;BME280;38816;51.142;-0.974;2022-11-20T01:10:11;99660.94;;;3.68;100.00
51439;BME280;38816;51.142;-0.974;2022-11-20T01:12:37;99639.63;;;3.65;100.00
51439;BME280;38816;51.142;-0.974;2022-11-20T01:15:02;99625.13;;;3.61;100.00
51439;BME280;38816;51.142;-0.974;2022-11-20T01:17:28;99635.59;;;3.70;100.00
51439;BME280;38816;51.142;-0.974;2022-11-20T01:19:53;99635.84;;;3.77;100.00
51439;BME280;38816;51.142;-0.974;2022-11-20T01:22:19;99619.69;;;3.75;100.00
51439;BME280;38816;51.142;-0.974;2022-11-20T01:24:44;99621.59;;;3.83;100.00
51439;BME280;38816;51.142;-0.974;2022-11-20T01:27:09;99622.56;;;3.86;100.00
51439;BME280;38816;51.142;-0.974;2022-11-20T01:29:35;99612.25;;;3.81;100.00
51439;BME280;38816;51.142;-0.974;2022-11-20T01:32:00;99615.16;;;3.92;100.00
51439;BME280;38816;51.142;-0.974;2022-11-20T01:34:26;99603.31;;;3.93;100.00
51439;BME280;38816;51.142;-0.974;2022-11-20T01:36:52;99606.09;;;4.00;100.00
51439;BME280;38816;51.142;-0.974;2022-11-20T01:39:23;99596.69;;;3.98;100.00
51439;BME280;38816;51.142;-0.974;2022-11-20T01:41:50;99599.50;;;4.05;100.00
51439;BME280;38816;51.142;-0.974;2022-11-20T01:44:58;99593.72;;;4.11;100.00
51439;BME280;38816;51.142;-0.974;2022-11-20T01:47:37;99594.69;;;4.15;100.00
51439;BME280;38816;51.142;-0.974;2022-11-20T01:50:12;99598.13;;;4.17;100.00
51439;BME280;38816;51.142;-0.974;2022-11-20T01:52:43;99599.09;;;4.20;100.00
51439;BME280;38816;51.142;-0.974;2022-11-20T01:55:24;99596.59;;;4.22;100.00
51439;BME280;38816;51.142;-0.974;2022-11-20T01:57:51;99600.00;;;4.22;100.00
51439;BME280;38816;51.142;-0.974;2022-11-20T02:00:18;99594.03;;;4.20;100.00
51439;BME280;38816;51.142;-0.974;2022-11-20T02:02:49;99594.13;;;4.23;100.00
51439;BME280;38816;51.142;-0.974;2022-11-20T02:05:22;99597.59;;;4.27;100.00
51439;BME280;38816;51.142;-0.974;2022-11-20T02:07:49;99586.50;;;4.23;100.00
51439;BME280;38816;51.142;-0.974;2022-11-20T02:10:15;99601.16;;;4.32;100.00
51439;BME280;38816;51.142;-0.974;2022-11-20T02:12:41;99585.00;;;4.30;100.00
51439;BME280;38816;51.142;-0.974;2022-11-20T02:15:25;99589.66;;;4.45;100.00
51439;BME280;38816;51.142;-0.974;2022-11-20T02:17:51;99577.06;;;4.48;100.00
51439;BME280;38816;51.142;-0.974;2022-11-20T02:20:16;99568.59;;;4.49;100.00
51439;BME280;38816;51.142;-0.974;2022-11-20T02:22:51;99556.06;;;4.55;100.00
51439;BME280;38816;51.142;-0.974;2022-11-20T02:25:19;99566.56;;;4.66;100.00
51439;BME280;38816;51.142;-0.974;2022-11-20T02:27:45;99548.75;;;4.67;100.00
51439;BME280;38816;51.142;-0.974;2022-11-20T02:30:11;99542.94;;;4.71;100.00
51439;BME280;38816;51.142;-0.974;2022-11-20T02:32:37;99532.66;;;4.68;100.00
51439;BME280;38816;51.142;-0.974;2022-11-20T02:35:36;99533.00;;;4.80;100.00
51439;BME280;38816;51.142;-0.974;2022-11-20T02:37:57;99513.44;;;4.78;100.00
51439;BME280;38816;51.142;-0.974;2022-11-20T02:40:24;99509.25;;;4.80;100.00
51439;BME280;38816;51.142;-0.974;2022-11-20T02:42:56;99520.50;;;4.88;100.00
51439;BME280;38816;51.142;-0.974;2022-11-20T02:45:23;99504.28;;;4.85;100.00
51439;BME280;38816;51.142;-0.974;2022-11-20T02:47:49;99512.06;;;4.91;100.00
51439;BME280;38816;51.142;-0.974;2022-11-20T02:50:14;99510.34;;;4.90;100.00
51439;BME280;38816;51.142;-0.974;2022-11-20T02:52:40;99505.00;;;4.80;100.00
51439;BME280;38816;51.142;-0.974;2022-11-20T02:55:06;99499.88;;;4.79;100.00
51439;BME280;38816;51.142;-0.974;2022-11-20T02:57:32;99507.50;;;4.77;100.00
51439;BME280;38816;51.142;-0.974;2022-11-20T02:59:57;99507.50;;;4.77;100.00
51439;BME280;38816;51.142;-0.974;2022-11-20T03:02:22;99499.03;;;4.78;100.00
51439;BME280;38816;51.142;-0.974;2022-11-20T03:04:48;99495.66;;;4.79;100.00
51439;BME280;38816;51.142;-0.974;2022-11-20T03:07:13;99504.28;;;4.85;100.00
51439;BME280;38816;51.142;-0.974;2022-11-20T03:09:39;99499.34;;;4.91;100.00
51439;BME280;38816;51.142;-0.974;2022-11-20T03:12:04;99475.53;;;4.89;100.00
51439;BME280;38816;51.142;-0.974;2022-11-20T03:14:30;99480.84;;;4.96;100.00
51439;BME280;38816;51.142;-0.974;2022-11-20T03:16:56;99479.25;;;5.00;100.00
51439;BME280;38816;51.142;-0.974;2022-11-20T03:19:21;99463.88;;;4.97;100.00
51439;BME280;38816;51.142;-0.974;2022-11-20T03:21:47;99467.38;;;5.02;100.00
51439;BME280;38816;51.142;-0.974;2022-11-20T03:24:12;99445.22;;;4.98;100.00
51439;BME280;38816;51.142;-0.974;2022-11-20T03:26:38;99454.00;;;5.09;100.00
51439;BME280;38816;51.142;-0.974;2022-11-20T03:29:04;99444.47;;;5.02;100.00
51439;BME280;38816;51.142;-0.974;2022-11-20T03:31:35;99436.13;;;5.07;100.00
51439;BME280;38816;51.142;-0.974;2022-11-20T03:34:03;99443.88;;;5.12;100.00
51439;BME280;38816;51.142;-0.974;2022-11-20T03:36:29;99445.59;;;5.13;100.00
51439;BME280;38816;51.142;-0.974;2022-11-20T03:38:56;99431.84;;;5.06;100.00
51439;BME280;38816;51.142;-0.974;2022-11-20T03:41:23;99444.72;;;5.13;100.00
51439;BME280;38816;51.142;-0.974;2022-11-20T03:43:51;99420.81;;;5.06;100.00
51439;BME280;38816;51.142;-0.974;2022-11-20T03:46:17;99402.97;;;5.06;100.00
51439;BME280;38816;51.142;-0.974;2022-11-20T03:48:43;99410.69;;;5.09;100.00
51439;BME280;38816;51.142;-0.974;2022-11-20T03:51:16;99407.44;;;5.15;100.00
51439;BME280;38816;51.142;-0.974;2022-11-20T03:53:43;99387.88;;;5.14;100.00
51439;BME280;38816;51.142;-0.974;2022-11-20T03:56:10;99388.03;;;5.21;100.00
51439;BME280;38816;51.142;-0.974;2022-11-20T03:58:37;99395.03;;;5.28;100.00
51439;BME280;38816;51.142;-0.974;2022-11-20T04:01:33;99398.41;;;5.27;100.00
51439;BME280;38816;51.142;-0.974;2022-11-20T04:03:59;99373.50;;;5.17;100.00
51439;BME280;38816;51.142;-0.974;2022-11-20T04:06:27;99383.03;;;5.24;100.00
51439;BME280;38816;51.142;-0.974;2022-11-20T04:08:57;99387.50;;;5.33;100.00
51439;BME280;38816;51.142;-0.974;2022-11-20T04:11:27;99386.69;;;5.36;100.00
51439;BME280;38816;51.142;-0.974;2022-11-20T04:13:55;99379.03;;;5.36;100.00
51439;BME280;38816;51.142;-0.974;2022-11-20T04:16:22;99372.28;;;5.36;100.00
51439;BME280;38816;51.142;-0.974;2022-11-20T04:18:52;99368.03;;;5.37;100.00
51439;BME280;38816;51.142;-0.974;2022-11-20T04:21:18;99361.16;;;5.32;100.00
51439;BME280;38816;51.142;-0.974;2022-11-20T04:23:43;99370.69;;;5.41;100.00
51439;BME280;38816;51.142;-0.974;2022-11-20T04:26:11;99357.94;;;5.41;100.00
51439;BME280;38816;51.142;-0.974;2022-11-20T04:28:37;99337.56;;;5.41;100.00
51439;BME280;38816;51.142;-0.974;2022-11-20T04:31:07;99346.47;;;5.60;100.00
51439;BME280;38816;51.142;-0.974;2022-11-20T04:33:34;99348.53;;;5.76;100.00
51439;BME280;38816;51.142;-0.974;2022-11-20T04:36:02;99335.81;;;5.79;100.00
51439;BME280;38816;51.142;-0.974;2022-11-20T04:38:28;99330.03;;;5.87;100.00
51439;BME280;38816;51.142;-0.974;2022-11-20T04:41:01;99326.00;;;5.95;100.00
51439;BME280;38816;51.142;-0.974;2022-11-20T04:43:27;99327.78;;;6.00;100.00
51439;BME280;38816;51.142;-0.974;2022-11-20T04:45:54;99315.13;;;6.05;100.00
51439;BME280;38816;51.142;-0.974;2022-11-20T04:48:20;99325.56;;;6.17;100.00
51439;BME280;38816;51.142;-0.974;2022-11-20T04:50:45;99312.00;;;6.20;100.00
51439;BME280;38816;51.142;-0.974;2022-11-20T04:53:11;99313.94;;;6.31;100.00
51439;BME280;38816;51.142;-0.974;2022-11-20T04:55:36;99307.16;;;6.33;100.00
51439;BME280;38816;51.142;-0.974;2022-11-20T04:58:01;99302.19;;;6.41;100.00
51439;BME280;38816;51.142;-0.974;2022-11-20T05:00:27;99309.22;;;6.53;100.00
51439;BME280;38816;51.142;-0.974;2022-11-20T05:02:52;99308.47;;;6.58;100.00
51439;BME280;38816;51.142;-0.974;2022-11-20T05:05:18;99292.31;;;6.61;100.00
51439;BME280;38816;51.142;-0.974;2022-11-20T05:07:43;99290.69;;;6.66;100.00
51439;BME280;38816;51.142;-0.974;2022-11-20T05:10:09;99288.22;;;6.71;100.00
51439;BME280;38816;51.142;-0.974;2022-11-20T05:12:34;99286.56;;;6.71;100.00
51439;BME280;38816;51.142;-0.974;2022-11-20T05:14:59;99278.13;;;6.77;100.00
51439;BME280;38816;51.142;-0.974;2022-11-20T05:17:25;99267.03;;;6.76;100.00
51439;BME280;38816;51.142;-0.974;2022-11-20T05:19:50;99265.41;;;6.81;100.00
51439;BME280;38816;51.142;-0.974;2022-11-20T05:22:15;99277.50;;;6.92;100.00
51439;BME280;38816;51.142;-0.974;2022-11-20T05:24:41;99271.53;;;6.93;100.00
51439;BME280;38816;51.142;-0.974;2022-11-20T05:27:06;99258.69;;;6.88;100.00
51439;BME280;38816;51.142;-0.974;2022-11-20T05:29:32;99242.50;;;6.88;100.00
51439;BME280;38816;51.142;-0.974;2022-11-20T05:31:57;99258.81;;;6.96;100.00
51439;BME280;38816;51.142;-0.974;2022-11-20T05:34:22;99257.13;;;6.98;100.00
51439;BME280;38816;51.142;-0.974;2022-11-20T05:36:48;99243.56;;;6.99;100.00
51439;BME280;38816;51.142;-0.974;2022-11-20T05:39:13;99248.69;;;7.02;100.00
51439;BME280;38816;51.142;-0.974;2022-11-20T05:41:38;99242.81;;;7.07;100.00
51439;BME280;38816;51.142;-0.974;2022-11-20T05:44:04;99240.28;;;7.10;100.00
51439;BME280;38816;51.142;-0.974;2022-11-20T05:46:29;99222.38;;;7.07;100.00
51439;BME280;38816;51.142;-0.974;2022-11-20T05:48:56;99230.19;;;7.18;100.00
51439;BME280;38816;51.142;-0.974;2022-11-20T05:51:22;99225.97;;;7.22;100.00
51439;BME280;38816;51.142;-0.974;2022-11-20T05:53:47;99208.03;;;7.20;100.00
51439;BME280;38816;51.142;-0.974;2022-11-20T05:56:20;99213.22;;;7.23;100.00
51439;BME280;38816;51.142;-0.974;2022-11-20T05:58:46;99207.25;;;7.24;100.00
51439;BME280;38816;51.142;-0.974;2022-11-20T06:03:38;99213.31;;;7.32;100.00
51439;BME280;38816;51.142;-0.974;2022-11-20T06:06:05;99215.03;;;7.33;100.00
51439;BME280;38816;51.142;-0.974;2022-11-20T06:08:31;99201.34;;;7.28;100.00
51439;BME280;38816;51.142;-0.974;2022-11-20T06:10:57;99198.00;;;7.32;100.00
51439;BME280;38816;51.142;-0.974;2022-11-20T06:13:22;99190.31;;;7.31;100.00
51439;BME280;38816;51.142;-0.974;2022-11-20T06:15:52;99197.19;;;7.35;100.00
51439;BME280;38816;51.142;-0.974;2022-11-20T06:18:18;99234.63;;;7.33;100.00
51439;BME280;38816;51.142;-0.974;2022-11-20T06:20:44;99257.31;;;7.10;100.00
51439;BME280;38816;51.142;-0.974;2022-11-20T06:23:10;99248.72;;;7.03;100.00
51439;BME280;38816;51.142;-0.974;2022-11-20T06:25:42;99248.13;;;7.21;100.00
51439;BME280;38816;51.142;-0.974;2022-11-20T06:28:08;99250.75;;;7.27;100.00
51439;BME280;38816;51.142;-0.974;2022-11-20T06:30:34;99231.03;;;7.20;100.00
51439;BME280;38816;51.142;-0.974;2022-11-20T06:32:59;99243.28;;;7.43;100.00
51439;BME280;38816;51.142;-0.974;2022-11-20T06:35:25;99248.50;;;7.52;100.00
51439;BME280;38816;51.142;-0.974;2022-11-20T06:37:50;99245.94;;;7.49;100.00
51439;BME280;38816;51.142;-0.974;2022-11-20T06:40:16;99238.25;;;7.49;100.00
51439;BME280;38816;51.142;-0.974;2022-11-20T06:42:41;99242.53;;;7.48;100.00
51439;BME280;38816;51.142;-0.974;2022-11-20T06:45:07;99258.78;;;7.53;100.00
51439;BME280;38816;51.142;-0.974;2022-11-20T06:47:33;99257.00;;;7.49;100.00
51439;BME280;38816;51.142;-0.974;2022-11-20T06:49:58;99247.59;;;7.47;100.00
51439;BME280;38816;51.142;-0.974;2022-11-20T06:52:24;99245.81;;;7.41;100.00
51439;BME280;38816;51.142;-0.974;2022-11-20T06:54:49;99249.19;;;7.37;100.00
51439;BME280;38816;51.142;-0.974;2022-11-20T06:57:15;99249.13;;;7.32;100.00
51439;BME280;38816;51.142;-0.974;2022-11-20T06:59:40;99238.72;;;7.20;100.00
51439;BME280;38816;51.142;-0.974;2022-11-20T07:02:08;99235.16;;;7.09;100.00
51439;BME280;38816;51.142;-0.974;2022-11-20T07:04:34;99248.88;;;7.14;100.00
51439;BME280;38816;51.142;-0.974;2022-11-20T07:06:59;99259.34;;;7.32;100.00
51439;BME280;38816;51.142;-0.974;2022-11-20T07:09:24;99259.28;;;7.26;100.00
51439;BME280;38816;51.142;-0.974;2022-11-20T07:11:50;99257.44;;;7.19;100.00
51439;BME280;38816;51.142;-0.974;2022-11-20T07:14:15;99260.84;;;7.18;100.00
51439;BME280;38816;51.142;-0.974;2022-11-20T07:16:40;99253.84;;;7.06;100.00
51439;BME280;38816;51.142;-0.974;2022-11-20T07:19:06;99260.66;;;7.06;100.00
51439;BME280;38816;51.142;-0.974;2022-11-20T07:21:31;99248.63;;;6.97;100.00
51439;BME280;38816;51.142;-0.974;2022-11-20T07:23:57;99257.31;;;7.07;100.00
51439;BME280;38816;51.142;-0.974;2022-11-20T07:26:22;99270.16;;;7.12;100.00
51439;BME280;38816;51.142;-0.974;2022-11-20T07:28:48;99269.13;;;7.02;100.00
51439;BME280;38816;51.142;-0.974;2022-11-20T07:31:13;99264.63;;;6.85;100.00
51439;BME280;38816;51.142;-0.974;2022-11-20T07:33:38;99281.75;;;6.93;100.00
51439;BME280;38816;51.142;-0.974;2022-11-20T07:36:04;99271.41;;;6.83;100.00
51439;BME280;38816;51.142;-0.974;2022-11-20T07:38:30;99289.97;;;6.72;100.00
51439;BME280;38816;51.142;-0.974;2022-11-20T07:40:58;99291.81;;;6.80;100.00
51439;BME280;38816;51.142;-0.974;2022-11-20T07:43:26;99281.38;;;6.68;100.00
51439;BME280;38816;51.142;-0.974;2022-11-20T07:45:55;99291.53;;;6.64;100.00
51439;BME280;38816;51.142;-0.974;2022-11-20T07:48:20;99289.03;;;6.68;100.00
51439;BME280;38816;51.142;-0.974;2022-11-20T07:50:45;99286.63;;;6.77;100.00
51439;BME280;38816;51.142;-0.974;2022-11-20T07:53:11;99301.88;;;6.71;100.00
51439;BME280;38816;51.142;-0.974;2022-11-20T07:55:37;99320.53;;;6.69;100.00
51439;BME280;38816;51.142;-0.974;2022-11-20T07:58:03;99329.84;;;6.65;100.00
51439;BME280;38816;51.142;-0.974;2022-11-20T08:00:28;99319.53;;;6.59;100.00
51439;BME280;38816;51.142;-0.974;2022-11-20T08:02:54;99316.69;;;6.44;100.00
51439;BME280;38816;51.142;-0.974;2022-11-20T08:05:19;99348.22;;;6.44;100.00
51439;BME280;38816;51.142;-0.974;2022-11-20T08:07:45;99354.88;;;6.38;100.00
51439;BME280;38816;51.142;-0.974;2022-11-20T08:10:12;99355.69;;;6.35;100.00
51439;BME280;38816;51.142;-0.974;2022-11-20T08:12:46;99355.81;;;6.41;100.00
51439;BME280;38816;51.142;-0.974;2022-11-20T08:15:30;99343.97;;;6.46;100.00
51439;BME280;38816;51.142;-0.974;2022-11-20T08:18:03;99351.47;;;6.37;100.00
51439;BME280;38816;51.142;-0.974;2022-11-20T08:20:29;99341.84;;;6.24;100.00
51439;BME280;38816;51.142;-0.974;2022-11-20T08:23:02;99339.03;;;6.10;100.00
51439;BME280;38816;51.142;-0.974;2022-11-20T08:25:29;99359.69;;;6.22;100.00
51439;BME280;38816;51.142;-0.974;2022-11-20T08:27:57;99349.34;;;6.15;100.00
51439;BME280;38816;51.142;-0.974;2022-11-20T08:30:23;99339.28;;;6.22;100.00
51439;BME280;38816;51.142;-0.974;2022-11-20T08:32:48;99353.78;;;6.25;100.00
51439;BME280;38816;51.142;-0.974;2022-11-20T08:35:14;99357.34;;;6.33;100.00
51439;BME280;38816;51.142;-0.974;2022-11-20T08:37:39;99353.19;;;6.38;100.00
51439;BME280;38816;51.142;-0.974;2022-11-20T08:40:09;99334.22;;;6.25;100.00
51439;BME280;38816;51.142;-0.974;2022-11-20T08:42:35;99352.22;;;6.33;100.00
51439;BME280;38816;51.142;-0.974;2022-11-20T08:45:00;99360.09;;;6.44;100.00
51439;BME280;38816;51.142;-0.974;2022-11-20T08:47:26;99366.19;;;6.50;100.00
51439;BME280;38816;51.142;-0.974;2022-11-20T08:49:51;99373.84;;;6.50;100.00
51439;BME280;38816;51.142;-0.974;2022-11-20T08:52:16;99362.44;;;6.33;100.00
51439;BME280;38816;51.142;-0.974;2022-11-20T08:54:42;99382.13;;;6.39;100.00
51439;BME280;38816;51.142;-0.974;2022-11-20T08:57:07;99390.69;;;6.41;100.00
51439;BME280;38816;51.142;-0.974;2022-11-20T08:59:32;99395.66;;;6.34;100.00
51439;BME280;38816;51.142;-0.974;2022-11-20T09:01:58;99400.72;;;6.33;100.00
51439;BME280;38816;51.142;-0.974;2022-11-20T09:04:23;99399.00;;;6.30;100.00
51439;BME280;38816;51.142;-0.974;2022-11-20T09:06:49;99417.81;;;6.36;100.00
51439;BME280;38816;51.142;-0.974;2022-11-20T09:09:17;99399.72;;;6.25;100.00
51439;BME280;38816;51.142;-0.974;2022-11-20T09:11:43;99429.00;;;6.42;100.00
51439;BME280;38816;51.142;-0.974;2022-11-20T09:14:09;99418.72;;;6.39;100.00
51439;BME280;38816;51.142;-0.974;2022-11-20T09:16:34;99428.38;;;6.54;100.00
51439;BME280;38816;51.142;-0.974;2022-11-20T09:18:59;99412.88;;;6.45;100.00
51439;BME280;38816;51.142;-0.974;2022-11-20T09:21:25;99413.06;;;6.54;100.00
51439;BME280;38816;51.142;-0.974;2022-11-20T09:23:50;99407.88;;;6.51;100.00
51439;BME280;38816;51.142;-0.974;2022-11-20T09:26:16;99412.13;;;6.50;100.00
51439;BME280;38816;51.142;-0.974;2022-11-20T09:28:41;99409.81;;;6.63;100.00
51439;BME280;38816;51.142;-0.974;2022-11-20T09:31:19;99404.03;;;6.71;100.00
51439;BME280;38816;51.142;-0.974;2022-11-20T09:33:46;99405.84;;;6.78;100.00
51439;BME280;38816;51.142;-0.974;2022-11-20T09:36:12;99406.75;;;6.80;100.00
51439;BME280;38816;51.142;-0.974;2022-11-20T09:38:37;99408.56;;;6.88;100.00
51439;BME280;38816;51.142;-0.974;2022-11-20T09:41:06;99418.09;;;6.98;100.00
51439;BME280;38816;51.142;-0.974;2022-11-20T09:46:42;99427.69;;;7.08;100.00
51439;BME280;38816;51.142;-0.974;2022-11-20T09:49:37;99425.84;;;7.01;100.00
51439;BME280;38816;51.142;-0.974;2022-11-20T09:52:18;99413.63;;;6.84;100.00
51439;BME280;38816;51.142;-0.974;2022-11-20T09:54:47;99415.13;;;6.73;100.00
51439;BME280;38816;51.142;-0.974;2022-11-20T09:57:17;99402.19;;;6.66;100.00
51439;BME280;38816;51.142;-0.974;2022-11-20T09:59:49;99412.63;;;6.76;100.00
51439;BME280;38816;51.142;-0.974;2022-11-20T10:04:47;99405.31;;;6.98;100.00
51439;BME280;38816;51.142;-0.974;2022-11-20T10:07:30;99420.66;;;6.98;100.00
51439;BME280;38816;51.142;-0.974;2022-11-20T10:09:57;99422.19;;;6.88;100.00
51439;BME280;38816;51.142;-0.974;2022-11-20T10:25:14;99436.66;;;6.86;100.00
51439;BME280;38816;51.142;-0.974;2022-11-20T10:28:14;99447.78;;;6.90;100.00
51439;BME280;38816;51.142;-0.974;2022-11-20T10:30:43;99436.75;;;6.92;100.00
51439;BME280;38816;51.142;-0.974;2022-11-20T10:33:19;99434.41;;;7.03;100.00
51439;BME280;38816;51.142;-0.974;2022-11-20T10:35:55;99446.50;;;7.13;100.00
51439;BME280;38816;51.142;-0.974;2022-11-20T10:40:58;99427.38;;;6.93;100.00
51439;BME280;38816;51.142;-0.974;2022-11-20T10:43:44;99439.50;;;7.03;100.00
51439;BME280;38816;51.142;-0.974;2022-11-20T10:46:21;99432.72;;;7.05;100.00
51439;BME280;38816;51.142;-0.974;2022-11-20T10:48:48;99437.28;;;7.23;100.00
51439;BME280;38816;51.142;-0.974;2022-11-20T10:51:37;99434.00;;;7.30;100.00
51439;BME280;38816;51.142;-0.974;2022-11-20T10:57:00;99424.72;;;7.36;100.00
51439;BME280;38816;51.142;-0.974;2022-11-20T11:03:02;99429.94;;;7.43;100.00
51439;BME280;38816;51.142;-0.974;2022-11-20T11:05:12;99431.81;;;7.53;100.00
51439;BME280;38816;51.142;-0.974;2022-11-20T11:07:41;99427.56;;;7.55;100.00
51439;BME280;38816;51.142;-0.974;2022-11-20T11:10:24;99442.94;;;7.56;100.00
51439;BME280;38816;51.142;-0.974;2022-11-20T11:12:51;99445.69;;;7.67;100.00
51439;BME280;38816;51.142;-0.974;2022-11-20T11:15:27;99447.53;;;7.77;100.00
51439;BME280;38816;51.142;-0.974;2022-11-20T11:17:53;99416.75;;;7.71;100.00
51439;BME280;38816;51.142;-0.974;2022-11-20T11:20:23;99424.47;;;7.76;100.00
51439;BME280;38816;51.142;-0.974;2022-11-20T11:22:51;99428.81;;;7.81;100.00
51439;BME280;38816;51.142;-0.974;2022-11-20T11:25:28;99426.41;;;7.92;100.00
51439;BME280;38816;51.142;-0.974;2022-11-20T11:27:56;99411.84;;;7.86;100.00
51439;BME280;38816;51.142;-0.974;2022-11-20T11:30:23;99438.44;;;7.98;100.00
51439;BME280;38816;51.142;-0.974;2022-11-20T11:32:48;99436.69;;;7.97;100.00
51439;BME280;38816;51.142;-0.974;2022-11-20T11:35:27;99444.56;;;8.09;100.00
51439;BME280;38816;51.142;-0.974;2022-11-20T11:38:03;99435.03;;;7.99;100.00
51439;BME280;38816;51.142;-0.974;2022-11-20T11:40:31;99434.19;;;8.00;100.00
51439;BME280;38816;51.142;-0.974;2022-11-20T11:42:59;99441.16;;;8.10;100.00
51439;BME280;38816;51.142;-0.974;2022-11-20T11:45:27;99445.41;;;8.08;100.00
51439;BME280;38816;51.142;-0.974;2022-11-20T11:47:55;99436.97;;;8.15;100.00
51439;BME280;38816;51.142;-0.974;2022-11-20T11:50:24;99439.56;;;8.18;100.00
51439;BME280;38816;51.142;-0.974;2022-11-20T11:53:14;99438.81;;;8.27;100.00
51439;BME280;38816;51.142;-0.974;2022-11-20T11:58:56;99425.13;;;8.23;100.00
51439;BME280;38816;51.142;-0.974;2022-11-20T12:01:24;99425.16;;;8.26;100.00
51439;BME280;38816;51.142;-0.974;2022-11-20T12:06:56;99416.63;;;8.27;100.00
51439;BME280;38816;51.142;-0.974;2022-11-20T12:09:26;99427.84;;;8.35;100.00
51439;BME280;38816;51.142;-0.974;2022-11-20T12:12:05;99427.13;;;8.43;100.00
51439;BME280;38816;51.142;-0.974;2022-11-20T12:14:37;99428.84;;;8.45;100.00
51439;BME280;38816;51.142;-0.974;2022-11-20T12:17:03;99415.22;;;8.51;100.00
51439;BME280;38816;51.142;-0.974;2022-11-20T12:19:34;99416.94;;;8.49;100.00
51439;BME280;38816;51.142;-0.974;2022-11-20T12:22:07;99426.31;;;8.47;100.00
51439;BME280;38816;51.142;-0.974;2022-11-20T12:24:48;99416.06;;;8.50;100.00
51439;BME280;38816;51.142;-0.974;2022-11-20T12:30:18;99412.94;;;8.75;100.00
51439;BME280;38816;51.142;-0.974;2022-11-20T12:48:53;99418.59;;;9.32;100.00
51439;BME280;38816;51.142;-0.974;2022-11-20T12:51:38;99424.59;;;9.35;100.00
51439;BME280;38816;51.142;-0.974;2022-11-20T12:59:49;99419.72;;;9.64;100.00
51439;BME280;38816;51.142;-0.974;2022-11-20T13:07:35;99424.09;;;9.85;100.00
51439;BME280;38816;51.142;-0.974;2022-11-20T13:10:01;99421.69;;;10.13;100.00
51439;BME280;38816;51.142;-0.974;2022-11-20T13:12:39;99422.66;;;10.30;100.00
51439;BME280;38816;51.142;-0.974;2022-11-20T13:18:01;99419.88;;;9.94;100.00
51439;BME280;38816;51.142;-0.974;2022-11-20T13:20:29;99409.50;;;9.77;100.00
51439;BME280;38816;51.142;-0.974;2022-11-20T13:22:55;99398.28;;;9.61;100.00
51439;BME280;38816;51.142;-0.974;2022-11-20T13:25:38;99394.88;;;9.60;100.00
51439;BME280;38816;51.142;-0.974;2022-11-20T13:28:27;99397.34;;;9.48;100.00
51439;BME280;38816;51.142;-0.974;2022-11-20T13:30:55;99387.91;;;9.44;100.00
51439;BME280;38816;51.142;-0.974;2022-11-20T13:38:24;99363.88;;;9.28;100.00
51439;BME280;38816;51.142;-0.974;2022-11-20T13:41:00;99348.47;;;9.28;100.00
51439;BME280;38816;51.142;-0.974;2022-11-20T13:43:49;99333.06;;;9.25;100.00
51439;BME280;38816;51.142;-0.974;2022-11-20T13:46:14;99316.84;;;9.28;100.00
51439;BME280;38816;51.142;-0.974;2022-11-20T13:48:45;99308.28;;;9.26;100.00
51439;BME280;38816;51.142;-0.974;2022-11-20T14:02:01;99370.88;;;9.54;100.00
51439;BME280;38816;51.142;-0.974;2022-11-20T14:04:33;99362.25;;;9.43;100.00
51439;BME280;38816;51.142;-0.974;2022-11-20T14:07:00;99369.09;;;9.45;100.00
51439;BME280;38816;51.142;-0.974;2022-11-20T14:09:29;99370.81;;;9.42;100.00
51439;BME280;38816;51.142;-0.974;2022-11-20T14:11:55;99374.97;;;9.29;100.00
51439;BME280;38816;51.142;-0.974;2022-11-20T14:14:23;99370.75;;;9.35;100.00
51439;BME280;38816;51.142;-0.974;2022-11-20T14:16:50;99386.16;;;9.38;100.00
51439;BME280;38816;51.142;-0.974;2022-11-20T14:19:25;99391.25;;;9.35;100.00
51439;BME280;38816;51.142;-0.974;2022-11-20T14:21:54;99389.44;;;9.22;100.00